sensor_id;sensor_type;location;lat;lon;timestamp;pressure;altitude;pressure_sealevel;temperature;humidity
35649;BME280;21768;48.562;13.414;2023-04-08T00:01:12;97249.28;;;9.28;50.77
35649;BME280;21768;48.562;13.414;2023-04-08T00:03:38;97253.44;;;9.27;51.23
35649;BME280;21768;48.562;13.414;2023-04-08T00:06:03;97258.16;;;9.23;51.05
35649;BME280;21768;48.562;13.414;2023-04-08T00:08:29;97257.75;;;9.16;51.20
35649;BME280;21768;48.562;13.414;2023-04-08T00:10:54;97257.09;;;9.19;51.04
35649;BME280;21768;48.562;13.414;2023-04-08T00:13:20;97259.03;;;9.23;51.26
35649;BME280;21768;48.562;13.414;2023-04-08T00:15:45;97260.69;;;9.23;51.61
35649;BME280;21768;48.562;13.414;2023-04-08T00:18:13;97261.06;;;9.15;51.58
35649;BME280;21768;48.562;13.414;2023-04-08T00:20:39;97260.25;;;9.16;51.75
35649;BME280;21768;48.562;13.414;2023-04-08T00:23:05;97259.50;;;9.17;51.78
35649;BME280;21768;48.562;13.414;2023-04-08T00:25:30;97254.28;;;9.14;51.67
35649;BME280;21768;48.562;13.414;2023-04-08T00:27:56;97257.56;;;9.13;51.77
35649;BME280;21768;48.562;13.414;2023-04-08T00:30:21;97265.56;;;9.08;52.22
35649;BME280;21768;48.562;13.414;2023-04-08T00:32:47;97258.56;;;9.04;52.19
35649;BME280;21768;48.562;13.414;2023-04-08T00:35:12;97268.53;;;9.02;52.44
35649;BME280;21768;48.562;13.414;2023-04-08T00:37:39;97266.78;;;9.01;52.63
35649;BME280;21768;48.562;13.414;2023-04-08T00:40:05;97268.53;;;9.02;52.76
35649;BME280;21768;48.562;13.414;2023-04-08T00:42:31;97259.44;;;9.04;52.72
35649;BME280;21768;48.562;13.414;2023-04-08T00:44:57;97267.56;;;9.00;52.73
35649;BME280;21768;48.562;13.414;2023-04-08T00:47:22;97268.31;;;8.99;53.06
35649;BME280;21768;48.562;13.414;2023-04-08T00:49:48;97266.56;;;8.98;53.20
35649;BME280;21768;48.562;13.414;2023-04-08T00:52:13;97263.19;;;8.98;53.35
35649;BME280;21768;48.562;13.414;2023-04-08T00:54:40;97260.88;;;9.01;53.31
35649;BME280;21768;48.562;13.414;2023-04-08T00:57:06;97260.88;;;9.01;53.46
35649;BME280;21768;48.562;13.414;2023-04-08T00:59:32;97263.50;;;9.02;53.39
35649;BME280;21768;48.562;13.414;2023-04-08T01:05:08;97260.22;;;9.03;53.46
35649;BME280;21768;48.562;13.414;2023-04-08T01:07:43;97263.94;;;8.97;53.76
35649;BME280;21768;48.562;13.414;2023-04-08T01:10:16;97267.88;;;8.93;53.67
35649;BME280;21768;48.562;13.414;2023-04-08T01:12:48;97267.38;;;8.85;53.83
35649;BME280;21768;48.562;13.414;2023-04-08T01:15:14;97267.06;;;8.81;53.37
35649;BME280;21768;48.562;13.414;2023-04-08T01:17:41;97261.38;;;8.83;53.89
35649;BME280;21768;48.562;13.414;2023-04-08T01:20:08;97266.19;;;8.80;53.97
35649;BME280;21768;48.562;13.414;2023-04-08T01:23:02;97264.34;;;8.78;53.49
35649;BME280;21768;48.562;13.414;2023-04-08T01:25:34;97265.00;;;8.75;53.70
35649;BME280;21768;48.562;13.414;2023-04-08T01:28:04;97266.84;;;8.78;53.56
35649;BME280;21768;48.562;13.414;2023-04-08T01:30:31;97274.19;;;8.75;53.62
35649;BME280;21768;48.562;13.414;2023-04-08T01:32:59;97267.19;;;8.71;53.64
35649;BME280;21768;48.562;13.414;2023-04-08T01:35:26;97267.94;;;8.70;53.90
35649;BME280;21768;48.562;13.414;2023-04-08T01:37:52;97274.72;;;8.71;54.11
35649;BME280;21768;48.562;13.414;2023-04-08T01:40:19;97274.50;;;8.68;54.09
35649;BME280;21768;48.562;13.414;2023-04-08T01:42:46;97269.59;;;8.69;54.05
35649;BME280;21768;48.562;13.414;2023-04-08T01:45:13;97274.09;;;8.62;54.33
35649;BME280;21768;48.562;13.414;2023-04-08T01:47:41;97269.72;;;8.59;54.83
35649;BME280;21768;48.562;13.414;2023-04-08T01:50:09;97264.47;;;8.56;54.44
35649;BME280;21768;48.562;13.414;2023-04-08T01:52:36;97266.03;;;8.54;54.82
35649;BME280;21768;48.562;13.414;2023-04-08T01:55:03;97260.78;;;8.51;54.94
35649;BME280;21768;48.562;13.414;2023-04-08T01:57:33;97268.41;;;8.52;54.75
35649;BME280;21768;48.562;13.414;2023-04-08T02:00:00;97265.16;;;8.53;54.76
35649;BME280;21768;48.562;13.414;2023-04-08T02:02:27;97256.84;;;8.55;54.49
35649;BME280;21768;48.562;13.414;2023-04-08T02:04:54;97262.19;;;8.47;54.15
35649;BME280;21768;48.562;13.414;2023-04-08T02:07:19;97265.13;;;8.42;54.17
35649;BME280;21768;48.562;13.414;2023-04-08T02:09:46;97261.56;;;8.38;53.87
35649;BME280;21768;48.562;13.414;2023-04-08T02:12:11;97269.09;;;8.38;53.79
35649;BME280;21768;48.562;13.414;2023-04-08T02:14:37;97272.59;;;8.40;54.27
35649;BME280;21768;48.562;13.414;2023-04-08T02:19:59;97272.78;;;8.43;54.24
35649;BME280;21768;48.562;13.414;2023-04-08T02:25:03;97278.06;;;8.35;54.30
35649;BME280;21768;48.562;13.414;2023-04-08T02:27:33;97276.19;;;8.32;54.59
35649;BME280;21768;48.562;13.414;2023-04-08T02:30:02;97281.34;;;8.34;54.48
35649;BME280;21768;48.562;13.414;2023-04-08T02:32:30;97272.06;;;8.33;54.97
35649;BME280;21768;48.562;13.414;2023-04-08T02:34:58;97280.47;;;8.33;55.07
35649;BME280;21768;48.562;13.414;2023-04-08T02:37:27;97276.94;;;8.31;55.06
35649;BME280;21768;48.562;13.414;2023-04-08T02:39:52;97276.72;;;8.28;54.93
35649;BME280;21768;48.562;13.414;2023-04-08T02:42:17;97271.69;;;8.28;55.00
35649;BME280;21768;48.562;13.414;2023-04-08T02:44:43;97270.91;;;8.29;54.75
35649;BME280;21768;48.562;13.414;2023-04-08T02:47:08;97272.44;;;8.27;55.08
35649;BME280;21768;48.562;13.414;2023-04-08T02:49:34;97274.97;;;8.27;54.94
35649;BME280;21768;48.562;13.414;2023-04-08T02:51:59;97271.69;;;8.28;55.01
35649;BME280;21768;48.562;13.414;2023-04-08T02:54:25;97268.19;;;8.26;55.25
35649;BME280;21768;48.562;13.414;2023-04-08T02:56:50;97265.56;;;8.25;55.39
35649;BME280;21768;48.562;13.414;2023-04-08T02:59:16;97266.44;;;8.25;55.31
35649;BME280;21768;48.562;13.414;2023-04-08T03:01:42;97269.72;;;8.24;55.63
35649;BME280;21768;48.562;13.414;2023-04-08T03:04:07;97276.03;;;8.19;55.87
35649;BME280;21768;48.562;13.414;2023-04-08T03:06:32;97265.22;;;8.20;55.80
35649;BME280;21768;48.562;13.414;2023-04-08T03:08:58;97259.13;;;8.16;55.89
35649;BME280;21768;48.562;13.414;2023-04-08T03:11:23;97250.28;;;8.10;56.13
35649;BME280;21768;48.562;13.414;2023-04-08T03:13:49;97245.47;;;8.01;56.65
35649;BME280;21768;48.562;13.414;2023-04-08T03:16:14;97256.38;;;8.02;56.92
35649;BME280;21768;48.562;13.414;2023-04-08T03:18:40;97256.38;;;8.02;56.69
35649;BME280;21768;48.562;13.414;2023-04-08T03:21:05;97271.91;;;8.08;56.98
35649;BME280;21768;48.562;13.414;2023-04-08T03:23:31;97269.94;;;8.15;56.42
35649;BME280;21768;48.562;13.414;2023-04-08T03:25:56;97274.50;;;8.21;55.90
35649;BME280;21768;48.562;13.414;2023-04-08T03:28:22;97270.38;;;8.22;56.10
35649;BME280;21768;48.562;13.414;2023-04-08T03:30:48;97275.06;;;8.17;55.94
35649;BME280;21768;48.562;13.414;2023-04-08T03:33:13;97269.25;;;8.18;56.18
35649;BME280;21768;48.562;13.414;2023-04-08T03:35:39;97269.25;;;8.18;55.81
35649;BME280;21768;48.562;13.414;2023-04-08T03:38:04;97274.28;;;8.18;55.64
35649;BME280;21768;48.562;13.414;2023-04-08T03:40:30;97276.03;;;8.19;55.83
35649;BME280;21768;48.562;13.414;2023-04-08T03:42:55;97281.06;;;8.19;55.39
35649;BME280;21768;48.562;13.414;2023-04-08T03:45:21;97285.09;;;8.17;55.58
35649;BME280;21768;48.562;13.414;2023-04-08T03:47:46;97290.06;;;8.15;55.59
35649;BME280;21768;48.562;13.414;2023-04-08T03:50:12;97293.75;;;8.20;55.90
35649;BME280;21768;48.562;13.414;2023-04-08T03:52:37;97290.56;;;8.23;55.97
35649;BME280;21768;48.562;13.414;2023-04-08T03:55:03;97286.53;;;8.25;55.91
35649;BME280;21768;48.562;13.414;2023-04-08T03:57:29;97299.22;;;8.27;55.92
35649;BME280;21768;48.562;13.414;2023-04-08T03:59:54;97298.56;;;8.29;55.73
35649;BME280;21768;48.562;13.414;2023-04-08T04:02:19;97304.72;;;8.33;55.91
35649;BME280;21768;48.562;13.414;2023-04-08T04:04:45;97311.63;;;8.35;56.10
35649;BME280;21768;48.562;13.414;2023-04-08T04:07:10;97313.59;;;8.39;55.91
35649;BME280;21768;48.562;13.414;2023-04-08T04:09:36;97314.53;;;8.41;55.76
35649;BME280;21768;48.562;13.414;2023-04-08T04:12:01;97321.25;;;8.41;55.52
35649;BME280;21768;48.562;13.414;2023-04-08T04:14:26;97318.81;;;8.42;55.76
35649;BME280;21768;48.562;13.414;2023-04-08T04:16:52;97323.75;;;8.41;55.84
35649;BME280;21768;48.562;13.414;2023-04-08T04:19:17;97328.66;;;8.39;56.13
35649;BME280;21768;48.562;13.414;2023-04-08T04:21:43;97338.03;;;8.42;56.26
35649;BME280;21768;48.562;13.414;2023-04-08T04:24:08;97338.38;;;8.46;56.24
35649;BME280;21768;48.562;13.414;2023-04-08T04:26:34;97339.25;;;8.47;56.53
35649;BME280;21768;48.562;13.414;2023-04-08T04:28:59;97343.94;;;8.42;56.73
35649;BME280;21768;48.562;13.414;2023-04-08T04:31:24;97351.47;;;8.42;56.75
35649;BME280;21768;48.562;13.414;2023-04-08T04:33:50;97349.09;;;8.44;56.56
35649;BME280;21768;48.562;13.414;2023-04-08T04:36:16;97352.69;;;8.47;56.43
35649;BME280;21768;48.562;13.414;2023-04-08T04:38:42;97347.88;;;8.50;56.66
35649;BME280;21768;48.562;13.414;2023-04-08T04:41:07;97354.44;;;8.48;56.67
35649;BME280;21768;48.562;13.414;2023-04-08T04:43:33;97365.50;;;8.50;56.99
35649;BME280;21768;48.562;13.414;2023-04-08T04:45:58;97369.75;;;8.51;57.00
35649;BME280;21768;48.562;13.414;2023-04-08T04:48:25;97382.44;;;8.53;57.18
35649;BME280;21768;48.562;13.414;2023-04-08T04:50:58;97387.34;;;8.51;57.46
35649;BME280;21768;48.562;13.414;2023-04-08T04:53:24;97389.09;;;8.52;57.25
35649;BME280;21768;48.562;13.414;2023-04-08T04:55:50;97392.28;;;8.50;57.66
35649;BME280;21768;48.562;13.414;2023-04-08T04:58:15;97402.22;;;8.48;57.75
35649;BME280;21768;48.562;13.414;2023-04-08T05:00:41;97389.53;;;8.47;58.00
35649;BME280;21768;48.562;13.414;2023-04-08T05:03:06;97395.44;;;8.47;58.42
35649;BME280;21768;48.562;13.414;2023-04-08T05:05:32;97401.00;;;8.43;58.42
35649;BME280;21768;48.562;13.414;2023-04-08T05:07:57;97410.91;;;8.30;58.93
35649;BME280;21768;48.562;13.414;2023-04-08T05:10:23;97395.81;;;8.30;59.33
35649;BME280;21768;48.562;13.414;2023-04-08T05:12:48;97406.63;;;8.29;59.75
35649;BME280;21768;48.562;13.414;2023-04-08T05:15:14;97410.44;;;8.24;60.34
35649;BME280;21768;48.562;13.414;2023-04-08T05:17:40;97417.75;;;8.21;60.36
35649;BME280;21768;48.562;13.414;2023-04-08T05:20:06;97407.81;;;8.23;60.80
35649;BME280;21768;48.562;13.414;2023-04-08T05:22:31;97415.69;;;8.15;61.04
35649;BME280;21768;48.562;13.414;2023-04-08T05:24:57;97420.13;;;8.08;61.51
35649;BME280;21768;48.562;13.414;2023-04-08T05:27:22;97421.25;;;8.11;61.94
35649;BME280;21768;48.562;13.414;2023-04-08T05:29:48;97430.19;;;8.08;62.11
35649;BME280;21768;48.562;13.414;2023-04-08T05:32:14;97427.63;;;7.96;61.96
35649;BME280;21768;48.562;13.414;2023-04-08T05:34:41;97414.50;;;7.89;62.54
35649;BME280;21768;48.562;13.414;2023-04-08T05:37:07;97432.63;;;7.84;62.69
35649;BME280;21768;48.562;13.414;2023-04-08T05:39:32;97438.44;;;7.73;62.90
35649;BME280;21768;48.562;13.414;2023-04-08T05:41:57;97435.59;;;7.69;63.14
35649;BME280;21768;48.562;13.414;2023-04-08T05:44:23;97430.69;;;7.70;63.18
35649;BME280;21768;48.562;13.414;2023-04-08T05:46:49;97436.69;;;7.72;63.45
35649;BME280;21768;48.562;13.414;2023-04-08T05:49:14;97437.00;;;7.65;63.44
35649;BME280;21768;48.562;13.414;2023-04-08T05:51:41;97440.16;;;7.63;63.92
35649;BME280;21768;48.562;13.414;2023-04-08T05:54:06;97443.81;;;7.56;63.83
35649;BME280;21768;48.562;13.414;2023-04-08T05:56:32;97443.81;;;7.56;64.19
35649;BME280;21768;48.562;13.414;2023-04-08T05:58:57;97445.81;;;7.60;64.00
35649;BME280;21768;48.562;13.414;2023-04-08T06:01:23;97451.34;;;7.56;64.35
35649;BME280;21768;48.562;13.414;2023-04-08T06:03:49;97443.81;;;7.56;64.50
35649;BME280;21768;48.562;13.414;2023-04-08T06:06:16;97451.13;;;7.53;64.52
35649;BME280;21768;48.562;13.414;2023-04-08T06:08:42;97451.25;;;7.55;65.00
35649;BME280;21768;48.562;13.414;2023-04-08T06:11:07;97450.59;;;7.57;64.78
35649;BME280;21768;48.562;13.414;2023-04-08T06:13:33;97452.72;;;7.63;64.74
35649;BME280;21768;48.562;13.414;2023-04-08T06:16:09;97451.34;;;7.56;65.02
35649;BME280;21768;48.562;13.414;2023-04-08T06:18:35;97448.44;;;7.62;65.17
35649;BME280;21768;48.562;13.414;2023-04-08T06:21:00;97454.59;;;7.65;65.15
35649;BME280;21768;48.562;13.414;2023-04-08T06:23:26;97462.88;;;7.64;65.24
35649;BME280;21768;48.562;13.414;2023-04-08T06:25:52;97458.06;;;7.67;65.52
35649;BME280;21768;48.562;13.414;2023-04-08T06:28:18;97461.56;;;7.69;65.58
35649;BME280;21768;48.562;13.414;2023-04-08T06:30:43;97464.84;;;7.68;65.27
35649;BME280;21768;48.562;13.414;2023-04-08T06:33:08;97476.31;;;7.65;64.91
35649;BME280;21768;48.562;13.414;2023-04-08T06:35:35;97473.56;;;7.62;65.28
35649;BME280;21768;48.562;13.414;2023-04-08T06:38:04;97466.16;;;7.63;65.10
35649;BME280;21768;48.562;13.414;2023-04-08T06:40:30;97471.16;;;7.63;65.19
35649;BME280;21768;48.562;13.414;2023-04-08T06:42:55;97467.78;;;7.63;65.03
35649;BME280;21768;48.562;13.414;2023-04-08T06:45:21;97472.81;;;7.63;65.17
35649;BME280;21768;48.562;13.414;2023-04-08T06:47:47;97470.28;;;7.63;65.10
35649;BME280;21768;48.562;13.414;2023-04-08T06:50:13;97485.59;;;7.66;65.31
35649;BME280;21768;48.562;13.414;2023-04-08T06:52:39;97479.25;;;7.71;65.04
35649;BME280;21768;48.562;13.414;2023-04-08T06:55:04;97488.66;;;7.73;65.11
35649;BME280;21768;48.562;13.414;2023-04-08T06:57:30;97481.38;;;7.76;65.10
35649;BME280;21768;48.562;13.414;2023-04-08T06:59:56;97488.91;;;7.76;65.14
35649;BME280;21768;48.562;13.414;2023-04-08T07:02:21;97483.16;;;7.67;64.87
35649;BME280;21768;48.562;13.414;2023-04-08T07:04:47;97495.03;;;7.58;65.16
35649;BME280;21768;48.562;13.414;2023-04-08T07:07:13;97494.56;;;7.52;65.13
35649;BME280;21768;48.562;13.414;2023-04-08T07:09:38;97490.44;;;7.42;65.74
35649;BME280;21768;48.562;13.414;2023-04-08T07:12:05;97489.59;;;7.42;65.48
35649;BME280;21768;48.562;13.414;2023-04-08T07:14:31;97491.78;;;7.49;65.54
35649;BME280;21768;48.562;13.414;2023-04-08T07:16:56;97493.56;;;7.50;65.59
35649;BME280;21768;48.562;13.414;2023-04-08T07:19:22;97492.53;;;7.58;65.72
35649;BME280;21768;48.562;13.414;2023-04-08T07:21:49;97491.41;;;7.55;65.48
35649;BME280;21768;48.562;13.414;2023-04-08T07:24:15;97491.78;;;7.59;65.77
35649;BME280;21768;48.562;13.414;2023-04-08T07:26:40;97502.75;;;7.71;65.68
35649;BME280;21768;48.562;13.414;2023-04-08T07:29:06;97499.19;;;7.79;65.91
35649;BME280;21768;48.562;13.414;2023-04-08T07:31:31;97497.69;;;7.81;65.58
35649;BME280;21768;48.562;13.414;2023-04-08T07:33:57;97495.69;;;7.77;65.89
35649;BME280;21768;48.562;13.414;2023-04-08T07:36:22;97498.38;;;7.91;65.63
35649;BME280;21768;48.562;13.414;2023-04-08T07:38:47;97497.91;;;7.84;65.45
35649;BME280;21768;48.562;13.414;2023-04-08T07:41:13;97513.03;;;7.74;65.76
35649;BME280;21768;48.562;13.414;2023-04-08T07:43:39;97508.81;;;7.63;65.62
35649;BME280;21768;48.562;13.414;2023-04-08T07:46:05;97512.50;;;7.57;65.78
35649;BME280;21768;48.562;13.414;2023-04-08T07:48:31;97514.34;;;7.59;65.98
35649;BME280;21768;48.562;13.414;2023-04-08T07:51:03;97512.91;;;7.73;66.17
35649;BME280;21768;48.562;13.414;2023-04-08T07:53:29;97515.84;;;7.89;66.06
35649;BME280;21768;48.562;13.414;2023-04-08T07:55:54;97516.06;;;7.92;65.77
35649;BME280;21768;48.562;13.414;2023-04-08T07:58:20;97518.50;;;7.91;65.95
35649;BME280;21768;48.562;13.414;2023-04-08T08:00:45;97519.25;;;7.90;65.54
35649;BME280;21768;48.562;13.414;2023-04-08T08:03:10;97519.53;;;7.82;65.79
35649;BME280;21768;48.562;13.414;2023-04-08T08:05:36;97513.88;;;7.85;65.67
35649;BME280;21768;48.562;13.414;2023-04-08T08:08:02;97521.50;;;7.87;66.06
35649;BME280;21768;48.562;13.414;2023-04-08T08:10:27;97521.97;;;7.93;66.00
35649;BME280;21768;48.562;13.414;2023-04-08T08:12:53;97516.78;;;8.01;65.65
35649;BME280;21768;48.562;13.414;2023-04-08T08:15:18;97520.44;;;7.95;65.23
35649;BME280;21768;48.562;13.414;2023-04-08T08:17:44;97525.53;;;7.84;66.07
35649;BME280;21768;48.562;13.414;2023-04-08T08:20:10;97532.69;;;7.90;66.04
35649;BME280;21768;48.562;13.414;2023-04-08T08:22:35;97531.09;;;7.80;65.69
35649;BME280;21768;48.562;13.414;2023-04-08T08:25:04;97533.47;;;7.79;65.95
35649;BME280;21768;48.562;13.414;2023-04-08T08:27:29;97528.09;;;7.74;65.74
35649;BME280;21768;48.562;13.414;2023-04-08T08:29:55;97522.81;;;7.71;66.07
35649;BME280;21768;48.562;13.414;2023-04-08T08:32:21;97534.19;;;7.66;65.89
35649;BME280;21768;48.562;13.414;2023-04-08T08:34:46;97536.03;;;7.69;66.29
35649;BME280;21768;48.562;13.414;2023-04-08T08:37:12;97524.31;;;7.79;66.54
35649;BME280;21768;48.562;13.414;2023-04-08T08:39:37;97530.38;;;7.93;65.92
35649;BME280;21768;48.562;13.414;2023-04-08T08:42:02;97537.75;;;8.02;65.89
35649;BME280;21768;48.562;13.414;2023-04-08T08:44:29;97527.06;;;8.04;66.07
35649;BME280;21768;48.562;13.414;2023-04-08T08:46:55;97536.88;;;8.23;65.88
35649;BME280;21768;48.562;13.414;2023-04-08T08:49:20;97535.31;;;8.35;65.83
35649;BME280;21768;48.562;13.414;2023-04-08T08:51:45;97531.41;;;8.39;65.41
35649;BME280;21768;48.562;13.414;2023-04-08T08:54:13;97531.28;;;8.37;65.44
35649;BME280;21768;48.562;13.414;2023-04-08T08:56:39;97539.50;;;8.46;65.24
35649;BME280;21768;48.562;13.414;2023-04-08T08:59:04;97533.72;;;8.47;65.16
35649;BME280;21768;48.562;13.414;2023-04-08T09:01:35;97541.94;;;8.57;65.62
35649;BME280;21768;48.562;13.414;2023-04-08T09:06:32;97538.03;;;8.72;65.26
35649;BME280;21768;48.562;13.414;2023-04-08T09:08:58;97541.44;;;8.72;65.03
35649;BME280;21768;48.562;13.414;2023-04-08T09:11:23;97542.53;;;8.76;64.85
35649;BME280;21768;48.562;13.414;2023-04-08T09:13:49;97545.94;;;8.76;64.87
35649;BME280;21768;48.562;13.414;2023-04-08T09:16:16;97546.81;;;8.77;65.08
35649;BME280;21768;48.562;13.414;2023-04-08T09:18:43;97551.44;;;8.82;64.71
35649;BME280;21768;48.562;13.414;2023-04-08T09:21:11;97552.53;;;8.86;65.38
35649;BME280;21768;48.562;13.414;2023-04-08T09:26:15;97558.22;;;8.83;64.07
35649;BME280;21768;48.562;13.414;2023-04-08T09:28:42;97563.44;;;8.75;64.51
35649;BME280;21768;48.562;13.414;2023-04-08T09:33:51;97566.25;;;8.68;64.34
35649;BME280;21768;48.562;13.414;2023-04-08T09:36:17;97577.41;;;8.71;64.38
35649;BME280;21768;48.562;13.414;2023-04-08T09:38:44;97577.06;;;8.67;64.42
35649;BME280;21768;48.562;13.414;2023-04-08T09:41:13;97577.75;;;8.64;64.32
35649;BME280;21768;48.562;13.414;2023-04-08T09:43:47;97583.41;;;8.62;64.79
35649;BME280;21768;48.562;13.414;2023-04-08T09:46:18;97579.56;;;8.67;64.63
35649;BME280;21768;48.562;13.414;2023-04-08T09:49:10;97583.31;;;8.72;64.70
35649;BME280;21768;48.562;13.414;2023-04-08T09:51:56;97581.56;;;8.71;64.64
35649;BME280;21768;48.562;13.414;2023-04-08T09:54:31;97580.81;;;8.72;65.17
35649;BME280;21768;48.562;13.414;2023-04-08T09:57:16;97580.44;;;8.67;64.58
35649;BME280;21768;48.562;13.414;2023-04-08T09:59:59;97583.84;;;8.68;64.96
35649;BME280;21768;48.562;13.414;2023-04-08T10:02:29;97582.03;;;8.77;64.74
35649;BME280;21768;48.562;13.414;2023-04-08T10:04:59;97578.56;;;8.86;63.97
35649;BME280;21768;48.562;13.414;2023-04-08T10:07:28;97579.34;;;8.97;63.79
35649;BME280;21768;48.562;13.414;2023-04-08T10:09:53;97583.53;;;9.08;63.74
35649;BME280;21768;48.562;13.414;2023-04-08T10:12:19;97580.91;;;9.18;63.53
35649;BME280;21768;48.562;13.414;2023-04-08T10:15:21;97582.69;;;9.31;62.92
35649;BME280;21768;48.562;13.414;2023-04-08T10:17:53;97582.25;;;9.48;63.27
35649;BME280;21768;48.562;13.414;2023-04-08T10:23:00;97575.88;;;9.77;62.63
35649;BME280;21768;48.562;13.414;2023-04-08T10:25:34;97572.50;;;9.76;62.08
35649;BME280;21768;48.562;13.414;2023-04-08T10:33:18;97578.34;;;10.12;60.64
35649;BME280;21768;48.562;13.414;2023-04-08T10:35:52;97582.31;;;10.08;60.87
35649;BME280;21768;48.562;13.414;2023-04-08T10:38:18;97581.44;;;10.08;60.81
35649;BME280;21768;48.562;13.414;2023-04-08T10:40:47;97577.94;;;10.06;61.56
35649;BME280;21768;48.562;13.414;2023-04-08T10:43:13;97581.88;;;10.02;61.75
35649;BME280;21768;48.562;13.414;2023-04-08T10:45:39;97581.00;;;10.02;61.60
35649;BME280;21768;48.562;13.414;2023-04-08T10:50:39;97581.47;;;9.84;62.12
35649;BME280;21768;48.562;13.414;2023-04-08T10:53:05;97579.84;;;9.85;62.11
35649;BME280;21768;48.562;13.414;2023-04-08T10:55:32;97584.31;;;9.89;61.57
35649;BME280;21768;48.562;13.414;2023-04-08T10:58:08;97587.25;;;9.95;62.13
35649;BME280;21768;48.562;13.414;2023-04-08T11:00:38;97579.91;;;9.98;61.51
35649;BME280;21768;48.562;13.414;2023-04-08T11:03:09;97582.44;;;9.98;61.77
35649;BME280;21768;48.562;13.414;2023-04-08T11:05:37;97586.81;;;10.01;61.67
35649;BME280;21768;48.562;13.414;2023-04-08T11:08:03;97587.03;;;10.04;61.37
35649;BME280;21768;48.562;13.414;2023-04-08T11:10:29;97589.53;;;10.04;60.89
35649;BME280;21768;48.562;13.414;2023-04-08T11:12:55;97582.88;;;9.93;61.80
35649;BME280;21768;48.562;13.414;2023-04-08T11:15:22;97584.75;;;9.83;61.95
35649;BME280;21768;48.562;13.414;2023-04-08T11:17:49;97585.53;;;9.82;61.73
35649;BME280;21768;48.562;13.414;2023-04-08T11:20:14;97588.03;;;9.71;61.47
35649;BME280;21768;48.562;13.414;2023-04-08T11:22:40;97591.97;;;9.67;61.14
35649;BME280;21768;48.562;13.414;2023-04-08T11:25:07;97598.78;;;9.68;61.39
35649;BME280;21768;48.562;13.414;2023-04-08T11:27:34;97600.53;;;9.69;61.59
35649;BME280;21768;48.562;13.414;2023-04-08T11:30:01;97595.50;;;9.69;62.04
35649;BME280;21768;48.562;13.414;2023-04-08T11:32:27;97596.47;;;9.71;61.26
35649;BME280;21768;48.562;13.414;2023-04-08T11:34:53;97584.53;;;9.80;61.47
35649;BME280;21768;48.562;13.414;2023-04-08T11:37:19;97595.78;;;9.97;61.01
35649;BME280;21768;48.562;13.414;2023-04-08T11:39:45;97586.09;;;10.15;60.98
35649;BME280;21768;48.562;13.414;2023-04-08T11:42:27;97590.19;;;10.25;60.35
35649;BME280;21768;48.562;13.414;2023-04-08T11:44:53;97594.78;;;10.30;60.28
35649;BME280;21768;48.562;13.414;2023-04-08T11:47:19;97596.75;;;10.34;60.76
35649;BME280;21768;48.562;13.414;2023-04-08T11:49:45;97599.81;;;10.30;59.90
35649;BME280;21768;48.562;13.414;2023-04-08T11:52:10;97602.44;;;10.32;60.71
35649;BME280;21768;48.562;13.414;2023-04-08T11:54:40;97595.59;;;10.42;60.68
35649;BME280;21768;48.562;13.414;2023-04-08T11:57:07;97593.50;;;10.48;60.32
35649;BME280;21768;48.562;13.414;2023-04-08T11:59:34;97601.50;;;10.54;59.75
35649;BME280;21768;48.562;13.414;2023-04-08T12:02:01;97600.50;;;10.52;59.74
35649;BME280;21768;48.562;13.414;2023-04-08T12:04:26;97593.97;;;10.43;59.06
35649;BME280;21768;48.562;13.414;2023-04-08T12:06:52;97599.31;;;10.47;59.17
35649;BME280;21768;48.562;13.414;2023-04-08T12:09:17;97599.75;;;10.53;59.38
35649;BME280;21768;48.562;13.414;2023-04-08T12:11:43;97595.47;;;10.52;59.37
35649;BME280;21768;48.562;13.414;2023-04-08T12:14:08;97598.00;;;10.52;58.78
35649;BME280;21768;48.562;13.414;2023-04-08T12:16:34;97606.66;;;10.56;59.83
35649;BME280;21768;48.562;13.414;2023-04-08T12:18:59;97601.81;;;10.59;59.55
35649;BME280;21768;48.562;13.414;2023-04-08T12:21:25;97600.63;;;10.54;58.93
35649;BME280;21768;48.562;13.414;2023-04-08T12:23:52;97599.28;;;10.34;59.05
35649;BME280;21768;48.562;13.414;2023-04-08T12:26:17;97608.06;;;10.28;59.58
35649;BME280;21768;48.562;13.414;2023-04-08T12:28:43;97608.72;;;10.25;59.51
35649;BME280;21768;48.562;13.414;2023-04-08T12:31:10;97609.66;;;10.15;60.33
35649;BME280;21768;48.562;13.414;2023-04-08T12:33:35;97616.72;;;10.08;60.07
35649;BME280;21768;48.562;13.414;2023-04-08T12:36:01;97602.91;;;10.03;59.96
35649;BME280;21768;48.562;13.414;2023-04-08T12:38:27;97618.59;;;9.99;60.58
35649;BME280;21768;48.562;13.414;2023-04-08T12:40:53;97616.63;;;9.95;60.39
35649;BME280;21768;48.562;13.414;2023-04-08T12:43:18;97618.16;;;9.93;60.63
35649;BME280;21768;48.562;13.414;2023-04-08T12:45:43;97621.13;;;9.87;61.11
35649;BME280;21768;48.562;13.414;2023-04-08T12:48:09;97618.28;;;9.82;61.31
35649;BME280;21768;48.562;13.414;2023-04-08T12:50:34;97625.06;;;9.83;61.68
35649;BME280;21768;48.562;13.414;2023-04-08T12:53:00;97620.81;;;9.82;61.39
35649;BME280;21768;48.562;13.414;2023-04-08T12:55:25;97610.50;;;9.79;61.00
35649;BME280;21768;48.562;13.414;2023-04-08T12:57:51;97622.13;;;9.77;61.12
35649;BME280;21768;48.562;13.414;2023-04-08T13:00:17;97620.69;;;9.69;61.83
35649;BME280;21768;48.562;13.414;2023-04-08T13:02:43;97619.25;;;9.73;61.68
35649;BME280;21768;48.562;13.414;2023-04-08T13:05:09;97615.09;;;9.73;61.54
35649;BME280;21768;48.562;13.414;2023-04-08T13:07:35;97613.00;;;9.68;60.87
35649;BME280;21768;48.562;13.414;2023-04-08T13:10:01;97612.13;;;9.67;60.28
35649;BME280;21768;48.562;13.414;2023-04-08T13:12:27;97617.06;;;9.77;60.23
35649;BME280;21768;48.562;13.414;2023-04-08T13:14:53;97619.06;;;9.81;59.72
35649;BME280;21768;48.562;13.414;2023-04-08T13:17:19;97612.16;;;9.79;59.93
35649;BME280;21768;48.562;13.414;2023-04-08T13:19:45;97619.38;;;9.86;60.33
35649;BME280;21768;48.562;13.414;2023-04-08T13:22:11;97616.97;;;9.87;59.42
35649;BME280;21768;48.562;13.414;2023-04-08T13:24:38;97625.31;;;9.86;60.11